Time;durP1;ratioP1;P1;durP2;ratioP2;P2;SDS_P1;SDS_P2;PMS_P1;PMS_P2;Temp;Humidity;BMP_temperature;BMP_pressure;BME280_temperature;BME280_humidity;BME280_pressure;Samples;Min_cycle;Max_cycle;Signal;HPM_P1;HPM_P2
2024/03/11 00:01:44;;;;;;;14.18;8.80;;;;;;;11.65;61.70;99019.81;4956781;28;20041;-77
2024/03/11 00:04:10;;;;;;;15.40;9.77;;;;;;;11.65;61.91;99018.97;4972302;28;20062;-78
2024/03/11 00:06:39;;;;;;;15.13;9.10;;;;;;;11.67;61.65;99025.78;4955779;28;20066;-78
2024/03/11 00:09:05;;;;;;;;;;;;;;;11.70;61.83;99032.53;4941764;28;20384;-78
2024/03/11 00:11:30;;;;;;;14.90;8.45;;;;;;;11.68;61.92;99026.59;4973796;28;19922;-78
2024/03/11 00:13:56;;;;;;;12.43;8.55;;;;;;;11.63;61.89;99006.03;4956068;28;20529;-78
2024/03/11 00:16:22;;;;;;;13.93;8.75;;;;;;;11.69;62.00;99023.88;4973785;28;20410;-79
2024/03/11 00:18:48;;;;;;;11.63;8.50;;;;;;;11.64;61.88;99002.47;4972659;28;20027;-79
2024/03/11 00:21:13;;;;;;;11.75;8.15;;;;;;;11.70;61.80;99012.47;4956734;28;20034;-78
2024/03/11 00:23:39;;;;;;;14.23;9.00;;;;;;;11.71;62.01;99014.09;4956113;28;20418;-77
2024/03/11 00:26:05;;;;;;;11.88;8.05;;;;;;;11.72;61.65;99010.56;4940389;28;20569;-77
2024/03/11 00:28:33;;;;;;;12.20;8.65;;;;;;;11.72;61.88;99005.31;4971806;28;20588;-79
2024/03/11 00:31:00;;;;;;;13.30;8.02;;;;;;;11.68;61.53;99000.44;4941030;28;20129;-77
2024/03/11 00:33:28;;;;;;;11.00;8.45;;;;;;;11.74;61.58;99007.81;4973440;28;20105;-79
2024/03/11 00:35:54;;;;;;;17.20;9.10;;;;;;;11.75;61.71;98999.03;4956683;28;20417;-78
2024/03/11 00:38:19;;;;;;;12.15;8.30;;;;;;;11.75;61.48;98997.25;4940395;28;20102;-79
2024/03/11 00:40:45;;;;;;;14.48;8.35;;;;;;;11.74;61.60;99000.81;4972149;28;20470;-78
2024/03/11 00:43:11;;;;;;;15.60;8.82;;;;;;;11.74;61.65;98998.19;4956794;28;20129;-78
2024/03/11 00:45:37;;;;;;;13.10;8.23;;;;;;;11.75;61.73;98999.03;4956373;28;20019;-78
2024/03/11 00:48:03;;;;;;;13.57;8.55;;;;;;;11.77;61.50;98997.13;4973668;28;20031;-78
2024/03/11 00:50:29;;;;;;;14.30;8.48;;;;;;;11.74;61.78;98986.91;4955844;28;20050;-78
2024/03/11 00:52:54;;;;;;;13.38;8.27;;;;;;;11.80;61.42;98996.91;4956245;28;20414;-78
2024/03/11 00:55:20;;;;;;;12.48;8.27;;;;;;;11.76;61.81;98991.06;4940078;28;20031;-78
2024/03/11 00:57:45;;;;;;;14.07;8.43;;;;;;;11.79;61.71;98997.00;4972062;28;20031;-77
2024/03/11 01:00:11;;;;;;;15.40;8.73;;;;;;;11.75;61.62;98996.41;4972393;28;20082;-78
2024/03/11 01:02:37;;;;;;;13.05;8.63;;;;;;;11.76;61.42;98998.91;4939702;28;20050;-78
2024/03/11 01:05:06;;;;;;;14.20;9.13;;;;;;;11.79;61.59;98994.41;4988045;28;20061;-77
2024/03/11 01:07:35;;;;;;;12.93;8.73;;;;;;;11.82;61.35;98988.94;4959731;28;20057;-77
2024/03/11 01:10:01;;;;;;;14.00;8.75;;;;;;;11.82;61.45;98989.75;4944140;28;20402;-78
2024/03/11 01:12:26;;;;;;;13.02;8.63;;;;;;;11.81;61.23;98988.06;4959130;28;20029;-82
2024/03/11 01:14:53;;;;;;;10.85;8.57;;;;;;;11.82;61.58;98988.94;4943230;28;20118;-81
2024/03/11 01:17:18;;;;;;;14.40;9.10;;;;;;;11.76;61.59;98978.00;4961760;28;20065;-82
2024/03/11 01:19:44;;;;;;;12.75;8.52;;;;;;;11.82;61.21;98973.22;4963300;28;20066;-79
2024/03/11 01:22:12;;;;;;;14.02;9.00;;;;;;;11.80;61.41;98968.13;4979562;28;20118;-79
2024/03/11 01:24:39;;;;;;;15.02;9.20;;;;;;;11.81;61.22;98966.31;4963801;28;20117;-80
2024/03/11 01:27:10;;;;;;;13.10;8.48;;;;;;;11.76;61.31;98962.31;4979182;28;20034;-81
2024/03/11 01:29:39;;;;;;;15.30;8.98;;;;;;;11.70;61.27;98941.00;4947927;28;20038;-80
2024/03/11 01:32:06;;;;;;;13.95;8.93;;;;;;;11.76;61.00;98972.78;4996493;28;20029;-81
2024/03/11 01:34:33;;;;;;;14.73;8.95;;;;;;;11.71;61.29;98960.97;4946176;28;20407;-81
2024/03/11 01:37:00;;;;;;;14.82;9.20;;;;;;;11.73;61.09;98965.16;4962377;28;20038;-81
2024/03/11 01:39:42;;;;;;;12.53;8.43;;;;;;;11.73;60.66;98952.09;4978763;28;20054;-81
2024/03/11 01:42:14;;;;;;;12.45;8.90;;;;;;;11.73;61.07;98961.69;4966882;28;20030;-80
2024/03/11 01:44:43;;;;;;;12.85;9.20;;;;;;;11.67;60.82;98949.94;4963687;28;20022;-81
2024/03/11 01:47:10;;;;;;;14.02;9.20;;;;;;;11.72;61.03;98946.97;4962817;28;20508;-80
2024/03/11 01:49:37;;;;;;;13.02;9.05;;;;;;;11.73;60.98;98946.00;4962643;28;20038;-80
2024/03/11 01:52:04;;;;;;;13.40;8.70;;;;;;;11.68;60.76;98935.91;4946415;28;20108;-80
2024/03/11 01:54:31;;;;;;;11.80;8.80;;;;;;;11.70;60.93;98941.00;4945517;28;20108;-79
2024/03/11 01:56:57;;;;;;;14.65;9.25;;;;;;;11.66;60.81;98931.75;4946653;28;20085;-79
2024/03/11 01:59:22;;;;;;;13.48;8.98;;;;;;;11.71;60.83;98934.84;4962293;28;20430;-79
2024/03/11 02:01:48;;;;;;;14.77;9.60;;;;;;;11.71;61.10;98930.44;4946102;28;20038;-79
2024/03/11 02:04:13;;;;;;;12.30;9.15;;;;;;;11.71;61.20;98929.59;4944835;28;20082;-79
2024/03/11 02:06:39;;;;;;;14.45;9.20;;;;;;;11.71;60.84;98943.50;4962355;28;20053;-80
2024/03/11 02:09:07;;;;;;;13.90;9.43;;;;;;;11.72;61.06;98946.97;4961844;28;20027;-79
2024/03/11 02:11:33;;;;;;;14.75;9.00;;;;;;;11.69;60.64;98945.41;4978460;28;20036;-80
2024/03/11 02:13:59;;;;;;;12.65;8.90;;;;;;;11.69;60.88;98934.13;4977899;28;20030;-81
2024/03/11 02:16:26;;;;;;;16.70;9.73;;;;;;;11.64;60.97;98924.03;4962113;28;20055;-81
2024/03/11 02:18:52;;;;;;;14.25;8.77;;;;;;;11.68;61.08;98935.91;4995318;28;20041;-80
2024/03/11 02:21:17;;;;;;;12.07;8.52;;;;;;;11.68;60.83;98933.28;4977984;28;20113;-80
2024/03/11 02:23:43;;;;;;;15.30;9.75;;;;;;;11.72;60.84;98937.34;4995229;28;20026;-80
2024/03/11 02:26:09;;;;;;;12.88;8.75;;;;;;;11.73;60.88;98939.00;4995616;28;20049;-80
2024/03/11 02:28:34;;;;;;;13.55;9.43;;;;;;;11.71;60.77;98933.03;4944353;28;20046;-81
2024/03/11 02:31:00;;;;;;;14.60;9.10;;;;;;;11.72;60.95;98928.66;4942587;28;20089;-81
2024/03/11 02:33:26;;;;;;;13.15;9.15;;;;;;;11.73;60.94;98935.53;4958111;28;20386;-81
2024/03/11 02:35:51;;;;;;;14.48;9.52;;;;;;;11.72;61.04;98933.91;4942641;28;20031;-80
2024/03/11 02:38:17;;;;;;;12.07;9.00;;;;;;;11.73;60.77;98948.63;4927167;28;20041;-81
2024/03/11 02:40:42;;;;;;;16.33;8.70;;;;;;;11.75;60.82;98962.41;4942449;28;20454;-80
2024/03/11 02:43:08;;;;;;;13.45;8.88;;;;;;;11.71;61.10;98963.59;4941565;28;20047;-80
2024/03/11 02:45:34;;;;;;;12.40;9.43;;;;;;;11.71;60.76;98971.44;4958299;28;20109;-80
2024/03/11 02:48:00;;;;;;;16.13;9.90;;;;;;;11.76;60.73;98982.38;4958213;28;20030;-81
2024/03/11 02:50:26;;;;;;;15.93;9.48;;;;;;;11.75;60.53;98975.50;4942822;28;20035;-81
2024/03/11 02:52:51;;;;;;;16.52;9.48;;;;;;;11.75;60.67;98983.34;4958696;28;20031;-81
2024/03/11 02:55:21;;;;;;;17.08;10.00;;;;;;;11.77;60.93;98991.91;4958302;28;20034;-80
2024/03/11 02:57:48;;;;;;;14.52;9.63;;;;;;;11.75;60.79;98973.72;4958638;28;20023;-80
2024/03/11 03:00:17;;;;;;;15.65;9.93;;;;;;;11.72;60.58;98973.94;4942562;28;20093;-81
2024/03/11 03:02:43;;;;;;;14.25;9.68;;;;;;;11.71;60.67;98967.03;4957873;28;20069;-80
2024/03/11 03:05:08;;;;;;;14.52;9.70;;;;;;;11.73;60.63;98959.94;4925731;28;20089;-81
2024/03/11 03:07:35;;;;;;;15.45;10.05;;;;;;;11.76;60.65;98970.16;4942145;28;20023;-80
2024/03/11 03:10:02;;;;;;;16.13;9.68;;;;;;;11.80;60.87;98964.66;4958194;28;20031;-80
2024/03/11 03:12:29;;;;;;;16.30;10.27;;;;;;;11.81;60.57;98966.31;4942319;28;20065;-81
2024/03/11 03:14:57;;;;;;;15.95;10.43;;;;;;;11.81;60.93;98955.88;4942139;28;20463;-80
2024/03/11 03:17:22;;;;;;;16.00;9.73;;;;;;;11.79;60.53;98971.69;4941672;28;20050;-80
2024/03/11 03:19:48;;;;;;;19.65;10.85;;;;;;;11.81;60.59;98969.75;4951985;28;20493;-80
2024/03/11 03:22:13;;;;;;;15.20;9.75;;;;;;;11.81;60.56;98966.31;4977035;28;20045;-80
2024/03/11 03:24:38;;;;;;;16.52;10.75;;;;;;;11.81;60.31;98963.72;4961128;28;20444;-81
2024/03/11 03:27:05;;;;;;;14.68;9.75;;;;;;;11.80;60.59;98955.03;4944822;28;20037;-80
2024/03/11 03:29:31;;;;;;;18.98;10.48;;;;;;;11.74;60.52;98940.66;4960779;28;20057;-81
2024/03/11 03:31:57;;;;;;;18.63;10.98;;;;;;;11.71;60.50;98940.88;4944779;28;20498;-81
2024/03/11 03:34:24;;;;;;;17.58;10.45;;;;;;;11.81;60.58;98955.88;4960856;28;20026;-82
2024/03/11 03:36:49;;;;;;;17.73;10.73;;;;;;;11.73;60.66;98951.22;4945196;28;20116;-82
2024/03/11 03:39:15;;;;;;;15.18;10.35;;;;;;;11.79;60.43;98963.00;4959813;28;20477;-81
2024/03/11 03:41:40;;;;;;;19.35;10.10;;;;;;;11.74;60.65;98966.81;4993557;28;20378;-81
2024/03/11 03:44:06;;;;;;;15.23;10.73;;;;;;;11.79;60.28;98969.06;4976842;28;20022;-81
2024/03/11 03:46:31;;;;;;;15.50;10.02;;;;;;;11.77;60.86;98979.63;4976392;28;20046;-81
2024/03/11 03:48:58;;;;;;;14.13;10.20;;;;;;;11.79;60.41;98965.63;4976146;28;20537;-82
2024/03/11 03:51:24;;;;;;;19.50;10.77;;;;;;;11.74;60.68;98952.91;4976597;28;20026;-81
2024/03/11 03:53:49;;;;;;;15.98;10.07;;;;;;;11.76;60.35;98964.91;4959827;28;20436;-81
2024/03/11 03:56:15;;;;;;;16.75;10.93;;;;;;;11.77;60.41;98960.50;4958713;28;20092;-80
2024/03/11 03:58:41;;;;;;;17.05;10.18;;;;;;;11.80;60.57;98959.41;4976173;28;20061;-81
2024/03/11 04:01:07;;;;;;;18.50;9.93;;;;;;;11.75;60.37;98944.13;4960185;28;20101;-80
2024/03/11 04:03:34;;;;;;;15.55;10.45;;;;;;;11.77;60.68;98945.66;4959898;28;20054;-79
2024/03/11 04:06:00;;;;;;;15.00;10.35;;;;;;;11.75;60.54;98933.66;4944273;28;20557;-79
2024/03/11 04:08:25;;;;;;;17.38;10.90;;;;;;;11.70;60.46;98928.78;4943899;28;20042;-77
2024/03/11 04:10:51;;;;;;;15.60;9.68;;;;;;;11.77;60.63;98945.66;4959502;28;20045;-78
2024/03/11 04:13:17;;;;;;;16.45;7.55;;;;;;;11.94;70.80;98936.50;4959295;28;20038;-78
2024/03/11 04:15:43;;;;;;;11.50;7.47;;;;;;;12.03;68.57;98950.63;4959345;28;20038;-82
2024/03/11 04:18:10;;;;;;;16.55;7.95;;;;;;;11.96;66.77;98948.66;4960097;28;20543;-87
2024/03/11 04:20:37;;;;;;;13.35;8.10;;;;;;;12.03;67.34;98953.25;4976384;28;20023;-86
2024/03/11 04:23:02;;;;;;;12.60;8.38;;;;;;;12.02;66.31;98956.84;4959711;28;20084;-83
2024/03/11 04:25:28;;;;;;;12.93;8.70;;;;;;;12.03;66.47;98963.72;4975725;28;20389;-85
2024/03/11 04:27:54;;;;;;;12.02;8.30;;;;;;;11.99;66.04;98953.66;4959765;28;20030;-84
2024/03/11 04:30:22;;;;;;;11.77;8.30;;;;;;;11.98;65.68;98968.50;4944027;28;20481;-80
2024/03/11 04:32:53;;;;;;;14.57;8.60;;;;;;;11.96;64.95;98978.25;4943877;28;20053;-80
2024/03/11 04:35:19;;;;;;;14.60;9.27;;;;;;;11.93;64.42;98974.06;4944252;28;20030;-80
2024/03/11 04:37:44;;;;;;;14.15;9.10;;;;;;;11.88;64.21;98970.16;4975620;28;20158;-84
2024/03/11 04:40:12;;;;;;;14.25;9.13;;;;;;;11.89;64.26;98977.88;4959619;28;20027;-82
2024/03/11 04:42:41;;;;;;;14.60;9.40;;;;;;;11.89;63.66;98992.72;4960112;28;20173;-88
2024/03/11 04:45:07;;;;;;;13.65;9.07;;;;;;;11.86;64.54;98977.25;4959551;28;20034;-84
2024/03/11 04:47:32;;;;;;;17.08;9.52;;;;;;;12.01;68.60;98980.50;4975843;28;20037;-79
2024/03/11 04:49:58;;;;;;;14.02;8.75;;;;;;;12.00;66.90;98984.91;4993363;28;20512;-91
2024/03/11 04:52:26;;;;;;;17.80;9.63;;;;;;;11.97;66.41;98977.31;4960293;28;20382;-89
2024/03/11 04:54:52;;;;;;;13.95;9.35;;;;;;;11.97;66.18;98982.53;4988994;28;20027;-88
2024/03/11 04:57:18;;;;;;;14.27;9.38;;;;;;;11.97;65.91;98981.69;4925722;28;20107;-90
2024/03/11 04:59:43;;;;;;;14.35;8.95;;;;;;;11.97;65.47;98984.31;4956536;28;20027;-83
2024/03/11 05:02:09;;;;;;;16.95;9.25;;;;;;;11.91;64.98;98959.44;4924449;28;20073;-83
2024/03/11 05:04:36;;;;;;;18.17;9.88;;;;;;;11.92;64.77;98954.13;4924060;28;20055;-84
2024/03/11 05:07:02;;;;;;;15.70;9.48;;;;;;;11.90;64.44;98953.34;4923893;28;20023;-82
2024/03/11 05:09:28;;;;;;;15.23;9.70;;;;;;;11.92;64.37;98950.66;4923951;28;20031;-92
2024/03/11 05:11:54;;;;;;;19.70;10.18;;;;;;;11.92;64.10;98961.13;4935973;28;20027;-91
2024/03/11 05:14:20;;;;;;;17.23;9.98;;;;;;;11.91;64.27;98968.13;4960854;28;20485;-91
2024/03/11 05:16:45;;;;;;;14.82;9.43;;;;;;;11.85;63.90;98962.53;4932429;28;20031;-90
2024/03/11 05:19:11;;;;;;;15.40;9.77;;;;;;;11.88;63.82;98972.75;4929098;28;20098;-90
2024/03/11 05:21:36;;;;;;;16.40;9.88;;;;;;;11.90;63.72;98976.91;4945396;28;20027;-90
2024/03/11 05:24:02;;;;;;;14.88;9.27;;;;;;;11.93;63.56;98976.69;4928162;28;20171;-91
2024/03/11 05:26:28;;;;;;;15.43;9.50;;;;;;;11.89;63.21;98983.09;4960246;28;20025;-90
2024/03/11 05:28:54;;;;;;;17.08;10.07;;;;;;;11.94;63.14;98988.00;4960219;28;20035;-90
2024/03/11 05:31:19;;;;;;;13.38;9.30;;;;;;;11.99;62.95;98998.94;4963201;28;20031;-93
2024/03/11 05:33:45;;;;;;;16.42;9.63;;;;;;;12.00;63.17;98991.91;4936338;28;20482;-91
2024/03/11 05:36:10;;;;;;;15.68;10.82;;;;;;;12.00;62.64;98979.69;4946919;28;20034;-91
2024/03/11 05:38:36;;;;;;;18.77;11.90;;;;;;;12.06;62.67;98988.81;4947182;28;20070;-91
2024/03/11 05:41:02;;;;;;;18.83;12.30;;;;;;;12.06;62.51;98981.78;4962227;28;20038;-90
2024/03/11 05:43:28;;;;;;;17.65;12.32;;;;;;;12.10;62.66;98996.31;4969143;28;20034;-91
2024/03/11 05:45:53;;;;;;;20.77;13.85;;;;;;;12.11;62.19;98990.13;4947445;28;20038;-91
2024/03/11 05:48:19;;;;;;;22.08;13.70;;;;;;;12.11;62.55;98986.66;4932204;28;20046;-91
2024/03/11 05:50:46;;;;;;;19.70;13.65;;;;;;;12.15;62.13;98989.91;4964197;28;20065;-90
2024/03/11 05:53:12;;;;;;;20.10;13.73;;;;;;;12.21;62.22;98992.03;4937297;28;20058;-91
2024/03/11 05:55:41;;;;;;;20.63;13.55;;;;;;;12.22;61.75;98970.13;4948764;28;20106;-92
2024/03/11 05:58:10;;;;;;;23.27;13.80;;;;;;;12.26;61.86;98976.78;4933015;28;20062;-91
2024/03/11 06:00:43;;;;;;;21.52;14.13;;;;;;;12.28;61.57;98969.63;4964978;28;20046;-92
2024/03/11 06:03:10;;;;;;;24.35;13.77;;;;;;;12.29;61.56;98973.94;4968448;28;20123;-92
2024/03/11 06:05:35;;;;;;;20.73;13.13;;;;;;;12.32;61.64;98978.94;4938285;28;20050;-93
2024/03/11 06:08:03;;;;;;;21.90;13.27;;;;;;;12.33;61.32;98971.91;4952962;28;20031;-92
2024/03/11 06:10:28;;;;;;;21.90;13.32;;;;;;;12.35;60.92;98976.06;4947151;28;20027;-81
2024/03/11 06:12:57;;;;;;;23.73;12.82;;;;;;;12.39;60.70;98958.31;4943385;28;20035;-91
2024/03/11 06:15:26;;;;;;;19.92;13.23;;;;;;;12.41;60.70;98964.25;4958273;28;20034;-91
2024/03/11 06:17:56;;;;;;;19.45;13.32;;;;;;;12.45;60.80;98974.34;4961059;28;20054;-93
2024/03/11 06:20:24;;;;;;;22.45;13.93;;;;;;;12.49;60.49;98974.94;4974829;28;20042;-92
2024/03/11 06:22:49;;;;;;;19.63;12.15;;;;;;;12.54;60.34;98988.50;4940181;28;20027;-93
2024/03/11 06:25:18;;;;;;;21.10;13.10;;;;;;;12.57;60.40;98990.03;4939910;28;20425;-92
2024/03/11 06:27:45;;;;;;;19.40;12.90;;;;;;;12.59;60.21;98982.91;4960287;28;20558;-92
2024/03/11 06:30:10;;;;;;;22.48;13.60;;;;;;;12.64;60.16;98978.13;4956730;28;20043;-91
2024/03/11 06:32:37;;;;;;;22.80;13.10;;;;;;;12.70;60.22;98988.09;4926956;28;20137;-83
2024/03/11 06:35:05;;;;;;;18.33;11.80;;;;;;;12.74;59.90;98976.41;4958460;28;20022;-83
2024/03/11 06:37:30;;;;;;;20.75;13.27;;;;;;;12.74;59.71;98979.03;4928145;28;20490;-85
2024/03/11 06:39:56;;;;;;;18.48;12.13;;;;;;;12.88;61.93;98988.38;4952874;28;20046;-84
2024/03/11 06:42:22;;;;;;;20.40;12.98;;;;;;;12.93;61.58;98988.81;4927417;28;20034;-84
2024/03/11 06:44:49;;;;;;;22.73;12.57;;;;;;;12.94;61.73;98979.19;4927748;28;20030;-81
2024/03/11 06:47:14;;;;;;;19.92;12.40;;;;;;;13.00;61.22;98982.13;4960056;28;20130;-85
2024/03/11 06:49:40;;;;;;;20.67;12.98;;;;;;;12.97;60.88;98971.91;4943826;28;20086;-88
2024/03/11 06:52:09;;;;;;;26.30;14.10;;;;;;;13.04;61.08;98987.94;4928591;28;20137;-82
2024/03/11 06:54:36;;;;;;;23.73;13.75;;;;;;;13.13;63.86;98991.63;4943600;28;20070;-88
2024/03/11 06:57:01;;;;;;;22.17;13.52;;;;;;;13.21;63.08;98999.66;4942531;28;20041;-85
2024/03/11 06:59:28;;;;;;;26.95;15.10;;;;;;;13.21;61.97;98991.81;4943200;28;20109;-87
2024/03/11 07:01:54;;;;;;;25.10;15.50;;;;;;;13.19;61.66;98991.94;4928345;28;20121;-81
2024/03/11 07:04:20;;;;;;;24.75;16.77;;;;;;;13.26;61.42;99005.34;4939885;29;20467;-86
2024/03/11 07:06:47;;;;;;;27.80;17.17;;;;;;;13.27;61.07;98995.72;4924044;29;20045;-83
2024/03/11 07:09:12;;;;;;;24.30;16.27;;;;;;;13.33;60.87;99003.94;4955731;28;20034;-81
2024/03/11 07:11:38;;;;;;;25.83;17.20;;;;;;;13.37;60.47;99009.75;4923258;29;20031;-80
2024/03/11 07:14:03;;;;;;;31.52;17.23;;;;;;;13.40;60.36;99014.72;4938873;29;20035;-81
2024/03/11 07:16:31;;;;;;;23.15;16.23;;;;;;;13.45;60.00;99017.78;4923177;29;20042;-79
2024/03/11 07:18:57;;;;;;;28.50;16.07;;;;;;;13.41;59.68;98998.03;4939352;29;20174;-81
2024/03/11 07:21:28;;;;;;;24.98;15.88;;;;;;;13.50;59.64;99005.13;4938663;29;20291;-81
2024/03/11 07:23:55;;;;;;;23.35;15.75;;;;;;;13.60;59.49;99005.19;4923173;29;20039;-80
2024/03/11 07:26:21;;;;;;;24.90;15.63;;;;;;;13.66;59.06;99007.28;4923233;29;20411;-80
2024/03/11 07:28:47;;;;;;;31.35;15.77;;;;;;;13.69;59.25;99006.19;4939787;29;20118;-87
2024/03/11 07:31:12;;;;;;;25.08;15.18;;;;;;;13.71;59.34;99020.00;4923727;29;20039;-84
2024/03/11 07:33:39;;;;;;;21.15;13.93;;;;;;;13.65;59.39;99017.91;4939857;29;20073;-84
2024/03/11 07:36:07;;;;;;;26.98;14.10;;;;;;;13.66;60.50;99015.16;4939284;29;20124;-83
2024/03/11 07:38:32;;;;;;;16.13;8.85;;;;;;;14.02;68.80;99017.38;4923309;29;20134;-87
2024/03/11 07:40:58;;;;;;;13.77;8.55;;;;;;;14.15;65.62;99012.72;4922909;29;20070;-82
2024/03/11 07:43:24;;;;;;;17.55;10.27;;;;;;;14.15;63.30;99015.34;4955042;29;20038;-85
2024/03/11 07:45:49;;;;;;;17.90;11.13;;;;;;;14.14;62.08;99000.59;4923420;29;20047;-82
2024/03/11 07:48:22;;;;;;;21.50;12.43;;;;;;;14.13;61.57;99013.84;4924836;29;20031;-86
2024/03/11 07:50:51;;;;;;;23.13;14.18;;;;;;;14.09;61.19;99019.34;4954773;29;20074;-82
2024/03/11 07:53:17;;;;;;;24.83;15.57;;;;;;;14.07;61.11;99026.53;4954811;29;20043;-82
2024/03/11 07:55:42;;;;;;;25.92;16.45;;;;;;;14.06;60.73;99029.28;4938848;29;20039;-80
2024/03/11 07:58:08;;;;;;;27.52;16.02;;;;;;;13.97;60.45;99024.84;4954960;28;20126;-81
2024/03/11 08:00:36;;;;;;;28.27;17.02;;;;;;;13.99;60.35;99030.78;4922329;29;20042;-82
2024/03/11 08:03:03;;;;;;;24.08;16.60;;;;;;;13.97;59.93;99037.97;4922777;29;20494;-82
2024/03/11 08:05:28;;;;;;;26.33;16.65;;;;;;;13.96;59.84;99037.09;4938308;29;20061;-80
2024/03/11 08:07:55;;;;;;;27.63;16.80;;;;;;;13.91;59.52;99024.38;4922289;29;20425;-82
2024/03/11 08:10:20;;;;;;;24.55;16.02;;;;;;;13.91;59.35;99034.88;4922165;29;20034;-82
2024/03/11 08:12:49;;;;;;;28.77;16.08;;;;;;;13.92;59.35;99036.53;4937829;29;20027;-81
2024/03/11 08:15:15;;;;;;;27.17;17.20;;;;;;;13.91;59.40;99023.56;4938138;29;20062;-83
2024/03/11 08:17:42;;;;;;;27.10;16.38;;;;;;;13.92;59.11;99028.66;4921760;29;20057;-83
2024/03/11 08:20:16;;;;;;;25.23;16.25;;;;;;;13.87;59.26;99023.00;4937973;29;20070;-83
2024/03/11 08:22:43;;;;;;;27.00;16.25;;;;;;;13.90;59.20;99027.97;4939013;29;20031;-81
2024/03/11 08:25:11;;;;;;;23.35;15.23;;;;;;;13.91;58.89;99021.75;4922113;28;20289;-82
2024/03/11 08:27:39;;;;;;;23.67;15.35;;;;;;;13.91;59.03;99023.56;4937383;29;20108;-82
2024/03/11 08:30:07;;;;;;;24.85;15.48;;;;;;;13.90;59.08;99016.66;4922427;29;20487;-81
2024/03/11 08:32:33;;;;;;;22.60;15.48;;;;;;;13.91;59.08;99008.63;4938025;29;20038;-83
2024/03/11 08:34:59;;;;;;;20.50;14.63;;;;;;;13.83;59.09;98990.09;4921872;29;20098;-81
2024/03/11 08:37:24;;;;;;;18.83;14.30;;;;;;;13.98;58.93;98997.59;4937488;29;20039;-84
2024/03/11 08:39:51;;;;;;;21.80;14.25;;;;;;;14.02;58.67;98996.41;4922157;29;20126;-82
2024/03/11 08:42:18;;;;;;;26.08;14.68;;;;;;;14.07;58.47;98995.03;4938404;29;20523;-82
2024/03/11 08:44:44;;;;;;;19.23;13.90;;;;;;;14.09;58.62;98990.47;4922293;29;20027;-82
2024/03/11 08:47:13;;;;;;;22.77;14.57;;;;;;;14.18;58.25;98985.38;4921822;29;20138;-82
2024/03/11 08:49:56;;;;;;;21.77;13.63;;;;;;;14.22;58.00;98982.38;4939168;29;20043;-82
2024/03/11 08:52:22;;;;;;;19.90;13.02;;;;;;;14.19;57.80;98966.88;4922075;29;20034;-81
2024/03/11 08:54:50;;;;;;;20.83;13.07;;;;;;;14.32;57.87;98964.00;4937673;29;20064;-80
2024/03/11 08:57:16;;;;;;;19.17;12.80;;;;;;;14.35;57.74;98962.91;4937545;29;20046;-81
2024/03/11 08:59:42;;;;;;;21.25;13.52;;;;;;;14.41;57.55;98957.13;4953413;28;20050;-82
2024/03/11 09:02:08;;;;;;;16.77;12.25;;;;;;;14.45;57.45;98955.84;4937595;29;20106;-82
2024/03/11 09:04:35;;;;;;;19.85;12.77;;;;;;;14.48;57.08;98958.22;4921189;29;20051;-82
2024/03/11 09:07:02;;;;;;;18.48;12.65;;;;;;;14.54;56.98;98962.94;4953519;28;20031;-82
2024/03/11 09:09:28;;;;;;;18.08;11.40;;;;;;;14.60;57.03;98977.34;4953505;29;20066;-82
2024/03/11 09:11:57;;;;;;;20.88;13.00;;;;;;;14.71;56.81;98992.16;4953140;29;20415;-82
2024/03/11 09:14:25;;;;;;;19.02;13.02;;;;;;;14.72;56.67;98975.41;4921930;29;20079;-82
2024/03/11 09:16:52;;;;;;;;;;;;;;;14.79;56.44;98997.56;4953318;28;20105;-83
2024/03/11 09:19:17;;;;;;;19.95;13.25;;;;;;;14.77;56.54;99000.31;4937278;29;20001;-84
2024/03/11 09:21:44;;;;;;;20.05;12.88;;;;;;;14.79;56.23;98984.41;4920989;29;20194;-80
2024/03/11 09:24:11;;;;;;;19.83;13.93;;;;;;;14.89;55.84;98995.75;4937336;29;20043;-82
2024/03/11 09:26:38;;;;;;;22.42;14.20;;;;;;;14.96;55.77;98988.13;4921605;29;20040;-81
2024/03/11 09:29:03;;;;;;;20.00;13.02;;;;;;;15.03;55.49;98978.72;4953278;29;20035;-82
2024/03/11 09:31:29;;;;;;;20.08;13.18;;;;;;;15.14;55.07;98980.38;4921088;29;20035;-82
2024/03/11 09:33:55;;;;;;;21.17;13.13;;;;;;;15.26;54.97;98987.16;4921433;29;20023;-82
2024/03/11 09:36:22;;;;;;;17.98;12.70;;;;;;;15.31;54.82;98986.75;4921106;29;20094;-81
2024/03/11 09:38:48;;;;;;;20.17;12.85;;;;;;;15.38;54.70;98983.38;4924233;29;20058;-81
2024/03/11 09:41:14;;;;;;;16.48;12.30;;;;;;;15.54;54.61;98993.34;4956856;29;20542;-82
2024/03/11 09:43:42;;;;;;;19.25;12.35;;;;;;;15.64;54.18;98980.16;4941053;29;20055;-82
2024/03/11 09:46:08;;;;;;;18.00;12.43;;;;;;;15.74;54.06;98980.91;4940731;29;20027;-81
2024/03/11 09:48:36;;;;;;;18.27;12.63;;;;;;;15.96;53.65;98992.09;4924604;29;20042;-82
2024/03/11 09:51:01;;;;;;;17.27;11.77;;;;;;;16.15;53.16;98987.72;4925159;29;20050;-81
2024/03/11 09:53:27;;;;;;;18.67;10.88;;;;;;;16.32;52.83;98983.47;4925018;29;20122;-83
2024/03/11 09:55:54;;;;;;;17.13;11.80;;;;;;;16.68;52.02;98991.41;4924723;29;20031;-82
2024/03/11 09:58:20;;;;;;;16.15;10.23;;;;;;;17.41;50.85;98977.19;4940187;29;20042;-82
2024/03/11 10:00:49;;;;;;;15.35;9.80;;;;;;;17.81;50.00;98979.25;4924405;29;20195;-81
2024/03/11 10:03:16;;;;;;;16.60;10.82;;;;;;;18.02;49.40;98970.13;4925312;28;20040;-83
2024/03/11 10:05:44;;;;;;;21.77;11.50;;;;;;;18.29;48.38;98955.84;4927455;28;20038;-81
2024/03/11 10:08:10;;;;;;;17.65;11.75;;;;;;;18.68;47.78;98972.94;4929403;28;20478;-80
2024/03/11 10:10:36;;;;;;;19.88;11.18;;;;;;;18.81;47.24;98970.63;4944043;28;20026;-82
2024/03/11 10:13:04;;;;;;;18.20;10.93;;;;;;;18.90;47.09;98960.94;4927507;28;20039;-83
2024/03/11 10:15:33;;;;;;;13.88;9.57;;;;;;;18.98;46.57;98960.91;4928870;28;20067;-82
2024/03/11 10:18:15;;;;;;;14.90;9.93;;;;;;;18.95;46.63;98958.59;4927371;28;20125;-82
2024/03/11 10:20:54;;;;;;;19.17;10.57;;;;;;;18.97;46.33;98954.78;4943671;28;20394;-81
2024/03/11 10:23:21;;;;;;;15.73;10.18;;;;;;;18.97;46.43;98952.13;4944730;28;20045;-81
2024/03/11 10:25:49;;;;;;;16.40;9.98;;;;;;;18.97;46.01;98962.72;4943371;28;20027;-82
2024/03/11 10:28:31;;;;;;;14.70;9.33;;;;;;;18.88;45.81;98958.44;4943405;28;20529;-81
2024/03/11 10:30:58;;;;;;;15.80;8.70;;;;;;;18.83;45.51;98952.78;4959458;28;20042;-82
2024/03/11 10:33:32;;;;;;;14.13;8.23;;;;;;;18.80;45.56;98951.31;4927372;28;20114;-82
2024/03/11 10:36:07;;;;;;;11.25;7.72;;;;;;;18.78;45.33;98966.50;4943280;28;20534;-82
2024/03/11 10:38:32;;;;;;;13.48;7.50;;;;;;;18.69;45.06;98966.66;4926873;28;20029;-80
2024/03/11 10:41:28;;;;;;;11.30;7.00;;;;;;;18.61;45.55;98957.72;4943000;28;20031;-84
2024/03/11 10:43:54;;;;;;;11.88;7.00;;;;;;;18.47;45.80;98963.66;4945204;28;20043;-83
2024/03/11 10:46:22;;;;;;;8.18;6.30;;;;;;;18.34;46.23;98952.72;4942926;28;20092;-81
2024/03/11 10:48:51;;;;;;;11.83;7.50;;;;;;;18.13;46.40;98940.78;4958336;28;20034;-81
2024/03/11 10:51:21;;;;;;;11.38;6.68;;;;;;;18.21;46.64;98943.44;4926573;28;20267;-81
2024/03/11 10:53:51;;;;;;;11.95;6.82;;;;;;;18.11;46.19;98934.84;4942294;28;20038;-82
2024/03/11 10:56:19;;;;;;;11.43;6.82;;;;;;;18.07;46.73;98930.84;4926393;28;20515;-81
2024/03/11 10:58:47;;;;;;;;;;;;;;;18.07;46.43;98936.97;4943321;28;20106;-81
2024/03/11 11:01:16;;;;;;;8.60;5.80;;;;;;;18.11;46.35;98936.66;4942204;28;19910;-81
2024/03/11 11:03:44;;;;;;;8.73;6.32;;;;;;;18.00;46.13;98921.91;4942698;28;20051;-83
2024/03/11 11:06:09;;;;;;;8.73;5.60;;;;;;;18.00;46.79;98919.28;4942362;28;20462;-82
2024/03/11 11:08:37;;;;;;;9.65;6.15;;;;;;;18.08;46.31;98920.13;4925910;28;20035;-81
2024/03/11 11:11:02;;;;;;;10.67;6.20;;;;;;;18.20;45.99;98925.94;4926448;28;20031;-82
2024/03/11 11:13:31;;;;;;;8.75;5.80;;;;;;;18.35;45.41;98920.03;4941910;28;20055;-82
2024/03/11 11:16:03;;;;;;;10.35;6.10;;;;;;;18.43;45.30;98909.47;4942716;28;20034;-81
2024/03/11 11:18:33;;;;;;;11.40;5.53;;;;;;;18.47;44.97;98900.22;4957956;28;20506;-82
2024/03/11 11:20:58;;;;;;;11.73;5.55;;;;;;;18.61;44.96;98907.50;4925972;28;20122;-82